createdAt,value
2022-08-31T00:00:51.159Z,1.52
2022-08-31T00:03:39.206Z,1.30
2022-08-31T00:06:06.600Z,1.58
2022-08-31T00:08:33.176Z,1.40
2022-08-31T00:11:00.300Z,1.17
2022-08-31T00:13:28.399Z,0.80
2022-08-31T00:15:56.448Z,1.08
2022-08-31T00:18:23.184Z,1.10
2022-08-31T00:20:49.825Z,1.17
2022-08-31T00:23:17.344Z,1.50
2022-08-31T00:25:45.163Z,1.10
2022-08-31T00:28:12.706Z,1.40
2022-08-31T00:30:39.535Z,1.58
2022-08-31T00:33:06.418Z,1.40
2022-08-31T00:35:36.146Z,1.23
2022-08-31T00:38:06.246Z,1.00
2022-08-31T00:40:33.413Z,1.25
2022-08-31T00:43:10.847Z,0.90
2022-08-31T00:45:37.466Z,1.00
2022-08-31T00:48:04.167Z,1.08
2022-08-31T00:50:30.840Z,1.75
2022-08-31T00:52:59.160Z,1.35
2022-08-31T00:55:36.614Z,1.33
2022-08-31T00:58:05.382Z,0.93
2022-08-31T01:00:32.519Z,1.13
2022-08-31T01:03:01.820Z,1.02
2022-08-31T01:05:29.256Z,1.40
2022-08-31T01:07:56.075Z,0.90
2022-08-31T01:10:24.322Z,0.93
2022-08-31T01:12:52.703Z,1.13
2022-08-31T01:15:19.727Z,1.05
2022-08-31T01:17:48.447Z,1.10
2022-08-31T01:20:25.113Z,1.50
2022-08-31T01:22:51.759Z,1.50
2022-08-31T01:25:18.949Z,1.20
2022-08-31T01:27:45.844Z,1.20
2022-08-31T01:30:13.588Z,1.45
2022-08-31T01:32:40.731Z,1.17
2022-08-31T01:35:07.597Z,0.98
2022-08-31T01:37:38.177Z,1.40
2022-08-31T01:40:04.864Z,1.98
2022-08-31T01:42:34.360Z,1.10
2022-08-31T01:45:01.180Z,1.45
2022-08-31T01:47:27.747Z,1.65
2022-08-31T01:49:57.486Z,1.48
2022-08-31T01:52:24.974Z,1.40
2022-08-31T01:54:54.981Z,1.60
2022-08-31T01:57:24.460Z,1.20
2022-08-31T02:00:01.899Z,1.00
2022-08-31T02:02:28.440Z,1.00
2022-08-31T02:04:54.991Z,0.90
2022-08-31T02:07:21.667Z,1.10
2022-08-31T02:09:48.174Z,1.10
2022-08-31T02:12:14.650Z,1.20
2022-08-31T02:14:41.248Z,1.30
2022-08-31T02:17:08.835Z,0.85
2022-08-31T02:19:35.371Z,1.15
2022-08-31T02:22:04.753Z,0.95
2022-08-31T02:24:31.265Z,1.30
2022-08-31T02:26:57.789Z,1.08
2022-08-31T02:29:24.326Z,0.88
2022-08-31T02:31:51.057Z,1.10
2022-08-31T02:34:17.682Z,1.00
2022-08-31T02:36:45.437Z,1.20
2022-08-31T02:39:12.912Z,1.20
2022-08-31T02:41:41.417Z,1.20
2022-08-31T02:44:07.975Z,1.15
2022-08-31T02:46:34.659Z,1.27
2022-08-31T02:49:01.787Z,1.23
2022-08-31T02:51:28.323Z,1.15
2022-08-31T02:53:54.852Z,0.95
2022-08-31T02:56:21.440Z,1.60
2022-08-31T02:58:54.947Z,1.30
2022-08-31T03:01:22.995Z,1.33
2022-08-31T03:03:50.022Z,1.77
2022-08-31T03:06:16.853Z,0.90
2022-08-31T03:08:44.082Z,1.38
2022-08-31T03:11:10.639Z,1.25
2022-08-31T03:13:38.171Z,0.90
2022-08-31T03:16:05.283Z,1.08
2022-08-31T03:18:32.257Z,0.85
2022-08-31T03:20:58.903Z,1.00
2022-08-31T03:23:25.733Z,1.00
2022-08-31T03:25:52.255Z,1.17
2022-08-31T03:28:18.879Z,1.00
2022-08-31T03:30:45.578Z,1.10
2022-08-31T03:33:12.245Z,1.02
2022-08-31T03:35:38.872Z,0.93
2022-08-31T03:38:05.574Z,0.85
2022-08-31T03:40:32.163Z,1.25
2022-08-31T03:43:00.165Z,0.60
2022-08-31T03:45:27.977Z,1.20
2022-08-31T03:47:54.942Z,1.13
2022-08-31T03:50:21.602Z,0.90
2022-08-31T03:52:48.234Z,1.00
2022-08-31T03:55:14.764Z,1.23
2022-08-31T03:57:41.334Z,1.27
2022-08-31T04:00:08.296Z,0.98
2022-08-31T04:02:37.798Z,1.17
2022-08-31T04:05:04.542Z,1.00
2022-08-31T04:07:38.405Z,1.33
2022-08-31T04:10:10.044Z,1.55
2022-08-31T04:12:36.652Z,1.15
2022-08-31T04:15:03.429Z,1.00
2022-08-31T04:17:30.124Z,1.13
2022-08-31T04:19:56.628Z,1.10
2022-08-31T04:22:23.200Z,1.30
2022-08-31T04:24:49.854Z,1.20
2022-08-31T04:27:16.357Z,1.40
2022-08-31T04:29:42.932Z,1.17
2022-08-31T04:32:09.668Z,1.48
2022-08-31T04:34:36.168Z,1.02
2022-08-31T04:37:02.678Z,1.15
2022-08-31T04:39:32.798Z,1.30
2022-08-31T04:41:59.375Z,1.30
2022-08-31T04:44:26.935Z,1.25
2022-08-31T04:46:53.636Z,1.50
2022-08-31T04:49:20.190Z,1.15
2022-08-31T04:51:46.671Z,1.00
2022-08-31T04:54:13.977Z,1.38
2022-08-31T04:56:43.378Z,1.27
2022-08-31T04:59:11.169Z,1.38
2022-08-31T05:01:42.975Z,1.30
2022-08-31T05:04:10.642Z,1.10
2022-08-31T05:06:38.992Z,1.40
2022-08-31T05:09:08.428Z,1.40
2022-08-31T05:11:35.140Z,1.50
2022-08-31T05:14:02.332Z,1.38
2022-08-31T05:16:30.745Z,1.50
2022-08-31T05:18:57.864Z,1.08
2022-08-31T05:21:28.539Z,1.00
2022-08-31T05:24:02.969Z,1.17
2022-08-31T05:26:38.064Z,1.20
2022-08-31T05:29:09.185Z,1.30
2022-08-31T05:31:39.318Z,1.17
2022-08-31T05:34:05.947Z,0.98
2022-08-31T05:36:33.166Z,1.02
2022-08-31T05:39:01.463Z,1.20
2022-08-31T05:41:29.580Z,1.10
2022-08-31T05:43:56.320Z,0.85
2022-08-31T05:46:23.288Z,1.27
2022-08-31T05:48:50.123Z,1.50
2022-08-31T05:51:17.251Z,1.92
2022-08-31T05:53:43.805Z,1.15
2022-08-31T05:56:11.824Z,2.08
2022-08-31T05:58:42.098Z,1.65
2022-08-31T06:01:21.419Z,1.27
2022-08-31T06:03:48.017Z,1.40
2022-08-31T06:06:14.646Z,1.55
2022-08-31T06:08:41.412Z,1.17
2022-08-31T06:11:08.322Z,0.93
2022-08-31T06:13:34.806Z,1.52
2022-08-31T06:16:02.034Z,1.52
2022-08-31T06:18:28.647Z,1.10
2022-08-31T06:21:09.299Z,1.20
2022-08-31T06:23:36.724Z,2.00
2022-08-31T06:26:07.376Z,1.35
2022-08-31T06:28:34.230Z,1.30
2022-08-31T06:31:01.855Z,1.20
2022-08-31T06:33:29.399Z,1.50
2022-08-31T06:35:56.282Z,1.70
2022-08-31T06:38:23.069Z,1.08
2022-08-31T06:40:49.823Z,1.05
2022-08-31T06:43:17.077Z,1.45
2022-08-31T06:45:43.844Z,1.20
2022-08-31T06:48:10.351Z,1.45
2022-08-31T06:50:39.076Z,1.35
2022-08-31T06:53:05.567Z,1.20
2022-08-31T06:55:32.070Z,1.63
2022-08-31T06:57:59.503Z,1.17
2022-08-31T07:00:26.154Z,1.30
2022-08-31T07:02:53.038Z,1.15
2022-08-31T07:05:24.685Z,0.82
2022-08-31T07:07:51.524Z,0.98
2022-08-31T07:10:19.470Z,0.60
2022-08-31T07:12:45.992Z,0.90
2022-08-31T07:15:12.557Z,1.17
2022-08-31T07:17:39.136Z,1.17
2022-08-31T07:20:05.894Z,1.10
2022-08-31T07:24:59.648Z,1.63
2022-08-31T07:27:26.151Z,1.75
2022-08-31T07:29:52.698Z,1.45
2022-08-31T07:32:19.272Z,1.27
2022-08-31T07:34:45.838Z,1.50
2022-08-31T07:37:31.077Z,2.05
2022-08-31T07:40:16.198Z,1.52
2022-08-31T07:42:43.856Z,1.38
2022-08-31T07:45:20.021Z,1.17
2022-08-31T07:47:50.065Z,1.50
2022-08-31T07:50:17.084Z,1.80
2022-08-31T07:52:47.303Z,1.33
2022-08-31T07:55:15.204Z,1.83
2022-08-31T07:57:45.228Z,1.85
2022-08-31T08:00:18.224Z,1.92
2022-08-31T08:02:53.204Z,1.63
2022-08-31T08:05:21.421Z,1.98
2022-08-31T08:07:55.026Z,1.73
2022-08-31T08:10:24.217Z,1.48
2022-08-31T08:12:57.357Z,1.45
2022-08-31T08:15:27.838Z,1.50
2022-08-31T08:17:54.349Z,1.90
2022-08-31T08:20:21.833Z,1.40
2022-08-31T08:23:11.645Z,1.30
2022-08-31T08:25:40.767Z,4.75
2022-08-31T08:28:28.994Z,1.60
2022-08-31T08:31:01.363Z,1.15
2022-08-31T08:33:29.526Z,1.60
2022-08-31T08:35:57.227Z,1.10
2022-08-31T08:38:24.788Z,0.85
2022-08-31T08:40:52.250Z,1.13
2022-08-31T08:43:21.127Z,1.02
2022-08-31T08:45:51.686Z,1.23
2022-08-31T08:48:23.250Z,0.88
2022-08-31T08:50:53.047Z,1.00
2022-08-31T08:53:22.223Z,0.75
2022-08-31T08:55:49.217Z,1.55
2022-08-31T08:58:19.326Z,1.30
2022-08-31T09:00:51.254Z,1.40
2022-08-31T09:03:39.302Z,0.90
2022-08-31T09:06:09.762Z,1.20
2022-08-31T09:08:48.333Z,0.80
2022-08-31T09:11:18.258Z,1.00
2022-08-31T09:13:49.324Z,1.70
2022-08-31T09:16:20.723Z,1.20
2022-08-31T09:18:49.887Z,1.20
2022-08-31T09:21:25.417Z,1.02
2022-08-31T09:23:55.094Z,1.20
2022-08-31T09:26:25.136Z,0.95
2022-08-31T09:28:53.072Z,1.52
2022-08-31T09:31:32.855Z,1.00
2022-08-31T09:33:59.590Z,0.90
2022-08-31T09:36:33.720Z,1.25
2022-08-31T09:39:20.866Z,1.40
2022-08-31T09:41:48.535Z,0.95
2022-08-31T09:44:22.495Z,1.05
2022-08-31T09:46:53.613Z,0.85
2022-08-31T09:49:25.794Z,0.85
2022-08-31T09:51:52.799Z,1.02
2022-08-31T09:54:43.103Z,0.80
2022-08-31T09:57:12.686Z,1.25
2022-08-31T09:59:44.013Z,0.68
2022-08-31T10:02:31.893Z,0.80
2022-08-31T10:05:01.381Z,0.75
2022-08-31T10:07:28.840Z,0.70
2022-08-31T10:09:59.774Z,0.80
2022-08-31T10:12:45.310Z,1.23
2022-08-31T10:15:28.870Z,0.82
2022-08-31T10:17:55.359Z,0.90
2022-08-31T10:20:26.278Z,1.08
2022-08-31T10:23:09.752Z,1.20
2022-08-31T10:25:41.863Z,0.70
2022-08-31T10:28:21.503Z,0.98
2022-08-31T10:30:52.809Z,1.08
2022-08-31T10:33:24.280Z,1.02
2022-08-31T10:35:50.797Z,0.95
2022-08-31T10:38:32.511Z,1.00
2022-08-31T10:41:17.147Z,0.60
2022-08-31T10:43:46.112Z,0.90
2022-08-31T10:46:13.761Z,0.85
2022-08-31T10:48:54.403Z,0.70
2022-08-31T10:51:24.015Z,0.88
2022-08-31T10:53:53.366Z,0.75
2022-08-31T10:56:20.688Z,0.73
2022-08-31T10:59:02.299Z,0.98
2022-08-31T11:01:28.843Z,0.75
2022-08-31T11:04:13.594Z,1.00
2022-08-31T11:07:00.661Z,0.82
2022-08-31T11:09:50.770Z,0.98
2022-08-31T11:12:21.729Z,1.20
2022-08-31T11:15:09.858Z,0.82
2022-08-31T11:17:39.483Z,0.85
2022-08-31T11:20:15.264Z,1.13
2022-08-31T11:25:31.143Z,1.00
2022-08-31T11:28:08.250Z,1.00
2022-08-31T11:30:41.341Z,0.73
2022-08-31T11:33:19.679Z,0.95
2022-08-31T11:35:49.535Z,1.10
2022-08-31T11:38:36.245Z,0.85
2022-08-31T11:41:04.216Z,1.00
2022-08-31T11:43:33.720Z,1.02
2022-08-31T11:46:32.513Z,1.23
2022-08-31T11:49:00.620Z,0.98
2022-08-31T11:51:37.356Z,1.00
2022-08-31T11:54:12.717Z,1.02
2022-08-31T11:56:40.452Z,1.20
2022-08-31T11:59:22.119Z,0.98
2022-08-31T12:01:48.639Z,0.98
2022-08-31T12:04:30.437Z,1.20
2022-08-31T12:07:02.234Z,1.00
2022-08-31T12:09:47.636Z,1.20
2022-08-31T12:12:17.330Z,0.82
2022-08-31T12:14:51.299Z,1.77
2022-08-31T12:20:08.567Z,1.05
2022-08-31T12:25:22.373Z,1.27
2022-08-31T12:27:48.888Z,0.90
2022-08-31T12:30:15.558Z,1.45
2022-08-31T12:32:43.522Z,1.10
2022-08-31T12:35:18.403Z,1.05
2022-08-31T12:37:45.287Z,1.63
2022-08-31T12:40:22.130Z,1.40
2022-08-31T12:42:56.811Z,1.52
2022-08-31T12:45:46.537Z,1.80
2022-08-31T12:48:25.262Z,1.30
2022-08-31T12:51:05.306Z,1.02
2022-08-31T12:54:01.032Z,1.23
2022-08-31T12:56:39.562Z,1.23
2022-08-31T12:59:21.382Z,1.00
2022-08-31T13:01:49.584Z,1.25
2022-08-31T13:04:17.235Z,1.42
2022-08-31T13:06:48.155Z,1.85
2022-08-31T13:09:28.358Z,0.88
2022-08-31T13:11:56.226Z,1.15
2022-08-31T13:14:27.368Z,1.70
2022-08-31T13:16:58.155Z,1.02
2022-08-31T13:19:25.825Z,1.05
2022-08-31T13:21:55.283Z,0.90
2022-08-31T13:24:29.039Z,0.85
2022-08-31T13:27:14.255Z,0.90
2022-08-31T13:29:47.030Z,1.00
2022-08-31T13:32:33.829Z,1.17
2022-08-31T13:35:04.215Z,1.00
2022-08-31T13:37:33.044Z,1.10
2022-08-31T13:40:11.364Z,0.93
2022-08-31T13:42:42.892Z,1.08
2022-08-31T13:45:25.363Z,1.13
2022-08-31T13:48:18.212Z,0.88
2022-08-31T13:50:56.199Z,1.25
2022-08-31T13:53:38.287Z,0.80
2022-08-31T13:56:42.722Z,0.85
2022-08-31T13:59:20.372Z,0.98
2022-08-31T14:01:48.014Z,1.05
2022-08-31T14:04:43.983Z,1.00
2022-08-31T14:07:15.219Z,1.10
2022-08-31T14:09:47.706Z,0.75
2022-08-31T14:12:35.404Z,4.47
2022-08-31T14:30:55.834Z,1.80
2022-08-31T14:33:23.801Z,0.90
2022-08-31T14:35:55.417Z,1.00
2022-08-31T14:38:25.166Z,0.90
2022-08-31T14:40:51.749Z,1.27
2022-08-31T14:43:25.987Z,1.70
2022-08-31T14:45:54.659Z,0.85
2022-08-31T14:48:21.322Z,1.40
2022-08-31T14:50:48.671Z,0.88
2022-08-31T14:53:15.158Z,1.67
2022-08-31T14:55:42.227Z,2.20
2022-08-31T14:58:13.175Z,2.05
2022-08-31T15:00:44.046Z,1.40
2022-08-31T15:03:12.067Z,1.30
2022-08-31T15:05:39.418Z,1.35
2022-08-31T15:08:06.285Z,1.30
2022-08-31T15:10:32.854Z,1.00
2022-08-31T15:13:05.738Z,1.23
2022-08-31T15:15:32.929Z,0.95
2022-08-31T15:18:04.763Z,0.95
2022-08-31T15:20:37.470Z,1.25
2022-08-31T15:23:04.268Z,1.10
2022-08-31T15:25:30.734Z,1.42
2022-08-31T15:27:58.118Z,1.65
2022-08-31T15:30:24.987Z,1.02
2022-08-31T15:32:54.348Z,1.13
2022-08-31T15:35:23.495Z,1.50
2022-08-31T15:37:56.500Z,1.40
2022-08-31T15:40:23.737Z,1.37
2022-08-31T15:42:51.091Z,1.23
2022-08-31T15:45:18.050Z,1.45
2022-08-31T15:48:03.834Z,1.30
2022-08-31T15:50:31.642Z,1.30
2022-08-31T15:53:01.624Z,1.40
2022-08-31T15:55:29.590Z,0.88
2022-08-31T15:57:58.488Z,1.10
2022-08-31T16:00:26.457Z,0.93
2022-08-31T16:02:55.486Z,1.25
2022-08-31T16:05:22.205Z,1.05
2022-08-31T16:07:51.435Z,0.93
2022-08-31T16:10:20.417Z,0.80
2022-08-31T16:12:47.759Z,0.95
2022-08-31T16:15:15.617Z,0.80
2022-08-31T16:17:42.360Z,1.20
2022-08-31T16:20:09.636Z,0.60
2022-08-31T16:22:36.935Z,0.88
2022-08-31T16:25:06.645Z,1.08
2022-08-31T16:27:36.068Z,0.80
2022-08-31T16:30:02.555Z,0.93
2022-08-31T16:32:30.435Z,1.27
2022-08-31T16:34:56.958Z,0.90
2022-08-31T16:37:23.914Z,1.30
2022-08-31T16:39:50.504Z,1.00
2022-08-31T16:42:17.742Z,0.90
2022-08-31T16:44:46.277Z,0.90
2022-08-31T16:47:13.952Z,1.10
2022-08-31T16:49:41.399Z,0.85
2022-08-31T16:52:10.981Z,0.90
2022-08-31T16:54:42.876Z,0.93
2022-08-31T16:57:10.070Z,1.10
2022-08-31T16:59:36.957Z,1.00
2022-08-31T17:02:03.587Z,1.35
2022-08-31T17:04:50.901Z,0.90
2022-08-31T17:07:18.486Z,1.05
2022-08-31T17:09:45.502Z,1.10
2022-08-31T17:12:14.413Z,0.93
2022-08-31T17:14:47.235Z,1.00
2022-08-31T17:17:16.103Z,1.40
2022-08-31T17:19:44.169Z,1.00
2022-08-31T17:22:18.127Z,1.92
2022-08-31T17:24:48.693Z,1.35
2022-08-31T17:27:17.122Z,1.20
2022-08-31T17:29:45.119Z,1.27
2022-08-31T17:32:13.907Z,0.98
2022-08-31T17:34:40.490Z,1.08
2022-08-31T17:37:08.242Z,1.08
2022-08-31T17:39:35.182Z,1.15
2022-08-31T17:42:01.933Z,1.17
2022-08-31T17:44:30.950Z,1.00
2022-08-31T17:46:59.043Z,0.90
2022-08-31T17:49:26.823Z,1.00
2022-08-31T17:51:54.021Z,1.33
2022-08-31T17:54:24.486Z,1.23
2022-08-31T17:56:56.258Z,1.00
2022-08-31T17:59:42.034Z,1.20
2022-08-31T18:02:10.302Z,0.82
2022-08-31T18:04:37.591Z,1.10
2022-08-31T18:07:04.468Z,1.48
2022-08-31T18:09:33.110Z,1.30
2022-08-31T18:12:01.697Z,2.00
2022-08-31T18:14:29.467Z,1.42
2022-08-31T18:16:57.615Z,1.30
2022-08-31T18:19:27.530Z,1.20
2022-08-31T18:21:55.618Z,1.30
2022-08-31T18:24:22.508Z,1.35
2022-08-31T18:26:50.299Z,1.58
2022-08-31T18:29:20.505Z,1.63
2022-08-31T18:31:54.113Z,1.17
2022-08-31T18:34:22.769Z,1.25
2022-08-31T18:36:50.237Z,1.30
2022-08-31T18:39:40.703Z,1.50
2022-08-31T18:42:26.851Z,1.40
2022-08-31T18:45:11.912Z,1.20
2022-08-31T18:47:38.385Z,1.40
2022-08-31T18:50:05.011Z,1.95
2022-08-31T18:52:32.055Z,1.35
2022-08-31T18:54:58.855Z,1.60
2022-08-31T18:57:26.119Z,1.95
2022-08-31T18:59:53.474Z,1.50
2022-08-31T19:02:21.437Z,2.00
2022-08-31T19:04:48.185Z,1.52
2022-08-31T19:07:15.420Z,1.88
2022-08-31T19:09:42.218Z,1.73
2022-08-31T19:12:08.767Z,1.60
2022-08-31T19:14:36.880Z,1.63
2022-08-31T19:17:04.755Z,2.08
2022-08-31T19:19:32.362Z,3.45
2022-08-31T19:21:58.847Z,3.72
2022-08-31T19:24:25.406Z,2.78
2022-08-31T19:26:53.703Z,2.55
2022-08-31T19:29:24.116Z,2.40
2022-08-31T19:31:51.161Z,2.28
2022-08-31T19:34:25.571Z,1.83
2022-08-31T19:36:54.729Z,1.90
2022-08-31T19:39:23.116Z,2.30
2022-08-31T19:41:50.487Z,2.20
2022-08-31T19:44:17.555Z,2.47
2022-08-31T19:46:52.509Z,2.70
2022-08-31T19:49:19.269Z,2.28
2022-08-31T19:51:51.893Z,2.55
2022-08-31T19:54:19.723Z,2.55
2022-08-31T19:56:46.646Z,3.10
2022-08-31T19:59:18.377Z,2.92
2022-08-31T20:01:47.817Z,2.78
2022-08-31T20:04:17.069Z,2.60
2022-08-31T20:06:45.392Z,2.40
2022-08-31T20:09:12.377Z,3.33
2022-08-31T20:11:39.589Z,3.20
2022-08-31T20:14:06.694Z,3.50
2022-08-31T20:16:34.426Z,3.58
2022-08-31T20:19:04.420Z,3.33
2022-08-31T20:21:32.760Z,3.25
2022-08-31T20:24:02.080Z,4.20
2022-08-31T20:26:33.221Z,3.95
2022-08-31T20:29:05.955Z,3.90
2022-08-31T20:31:32.863Z,3.75
2022-08-31T20:33:59.975Z,4.20
2022-08-31T20:36:29.128Z,4.90
2022-08-31T20:38:57.155Z,5.70
2022-08-31T20:41:24.949Z,5.38
2022-08-31T20:43:51.632Z,4.85
2022-08-31T20:46:36.711Z,4.03
2022-08-31T20:49:22.164Z,3.30
2022-08-31T20:51:49.889Z,3.03
2022-08-31T20:54:17.499Z,2.38
2022-08-31T20:56:44.369Z,2.55
2022-08-31T20:59:10.890Z,1.95
2022-08-31T21:01:38.273Z,2.35
2022-08-31T21:04:06.196Z,2.33
2022-08-31T21:06:36.389Z,2.00
2022-08-31T21:09:03.041Z,3.17
2022-08-31T21:11:29.598Z,1.60
2022-08-31T21:13:56.126Z,1.92
2022-08-31T21:16:22.777Z,2.17
2022-08-31T21:18:49.980Z,2.13
2022-08-31T21:21:17.712Z,1.92
2022-08-31T21:23:45.660Z,1.80
2022-08-31T21:26:17.715Z,2.10
2022-08-31T21:31:29.391Z,1.88
2022-08-31T21:34:00.582Z,2.00
2022-08-31T21:36:27.662Z,1.95
2022-08-31T21:38:54.989Z,2.00
2022-08-31T21:41:22.909Z,1.90
2022-08-31T21:43:49.789Z,1.95
2022-08-31T21:46:21.598Z,2.20
2022-08-31T21:48:48.775Z,2.40
2022-08-31T21:51:23.222Z,2.10
2022-08-31T21:54:00.643Z,2.40
2022-08-31T21:56:28.986Z,2.17
2022-08-31T21:58:59.311Z,2.88
2022-08-31T22:01:29.486Z,2.55
2022-08-31T22:03:57.547Z,2.80
2022-08-31T22:06:27.205Z,3.83
2022-08-31T22:08:55.389Z,2.80
2022-08-31T22:11:23.275Z,2.88
2022-08-31T22:13:50.598Z,3.05
2022-08-31T22:16:19.908Z,2.63
2022-08-31T22:19:06.407Z,3.13
2022-08-31T22:21:34.588Z,3.50
2022-08-31T22:24:06.006Z,3.55
2022-08-31T22:26:35.724Z,3.03
2022-08-31T22:29:02.293Z,3.90
2022-08-31T22:31:28.946Z,3.63
2022-08-31T22:33:55.542Z,4.95
2022-08-31T22:36:31.844Z,3.15
2022-08-31T22:39:06.527Z,2.55
2022-08-31T22:41:33.587Z,3.10
2022-08-31T22:44:00.402Z,3.92
2022-08-31T22:46:27.977Z,3.28
2022-08-31T22:48:54.526Z,3.08
2022-08-31T22:51:22.500Z,3.53
2022-08-31T22:53:51.601Z,3.50
2022-08-31T22:56:28.905Z,3.33
2022-08-31T22:58:57.592Z,2.60
2022-08-31T23:01:26.714Z,3.00
2022-08-31T23:03:54.398Z,2.92
2022-08-31T23:06:22.761Z,3.47
2022-08-31T23:08:50.319Z,3.13
2022-08-31T23:11:19.144Z,3.63
2022-08-31T23:13:52.553Z,4.13
2022-08-31T23:16:24.985Z,3.60
2022-08-31T23:18:52.519Z,3.17
2022-08-31T23:21:19.398Z,3.47
2022-08-31T23:23:46.063Z,3.45
2022-08-31T23:26:12.879Z,3.47
2022-08-31T23:28:39.933Z,3.85
2022-08-31T23:31:07.786Z,3.92
2022-08-31T23:33:34.851Z,3.08
2022-08-31T23:36:01.697Z,3.95
2022-08-31T23:38:30.607Z,3.30
2022-08-31T23:40:57.255Z,4.00
2022-08-31T23:43:26.733Z,2.92
2022-08-31T23:45:55.364Z,3.40
2022-08-31T23:48:23.106Z,4.32
2022-08-31T23:50:51.075Z,3.63
2022-08-31T23:53:18.029Z,3.47
2022-08-31T23:55:45.369Z,3.58
2022-08-31T23:58:14.212Z,2.78
